Time;durP1;ratioP1;P1;durP2;ratioP2;P2;SDS_P1;SDS_P2;PMS_P1;PMS_P2;Temp;Humidity;BMP_temperature;BMP_pressure;BME280_temperature;BME280_humidity;BME280_pressure;Samples;Min_cycle;Max_cycle;Signal;HPM_P1;HPM_P2
2023/10/06 00:00:42;;;;;;;13.87;6.60;;;11.60;99.90;;;;;;5016087;28;20426;-70
2023/10/06 00:03:11;;;;;;;10.03;6.30;;;11.60;99.90;;;;;;5016407;28;20394;-70
2023/10/06 00:05:38;;;;;;;12.00;5.80;;;11.60;99.90;;;;;;5016145;28;20426;-70
2023/10/06 00:10:54;;;;;;;9.03;5.33;;;11.50;99.90;;;;;;5015918;28;20390;-69
2023/10/06 00:13:28;;;;;;;6.20;4.80;;;11.50;99.90;;;;;;5016079;28;20793;-69
2023/10/06 00:15:55;;;;;;;7.77;5.13;;;11.50;99.90;;;;;;5016079;28;20809;-70
2023/10/06 00:18:23;;;;;;;8.80;5.53;;;11.60;99.90;;;;;;5015812;28;20407;-69
2023/10/06 00:20:55;;;;;;;9.20;6.03;;;11.60;99.90;;;;;;5015728;28;20963;-69
2023/10/06 00:23:21;;;;;;;7.43;5.23;;;11.50;99.90;;;;;;5015728;28;20455;-70
2023/10/06 00:25:51;;;;;;;7.80;5.57;;;11.50;99.90;;;;;;5015969;28;20414;-69
2023/10/06 00:28:22;;;;;;;8.20;5.37;;;11.60;99.90;;;;;;5015930;28;20411;-70
2023/10/06 00:30:48;;;;;;;9.30;5.33;;;11.60;99.90;;;;;;5015699;28;20402;-69
2023/10/06 00:33:15;;;;;;;13.37;6.07;;;11.60;99.90;;;;;;5015448;28;20403;-70
2023/10/06 00:35:41;;;;;;;10.47;5.20;;;11.50;99.90;;;;;;5015121;28;20459;-69
2023/10/06 00:38:12;;;;;;;8.30;5.23;;;11.50;99.90;;;;;;5014941;28;20399;-70
2023/10/06 00:40:44;;;;;;;7.97;5.00;;;11.50;99.90;;;;;;5015777;28;20384;-69
2023/10/06 00:43:15;;;;;;;6.83;4.50;;;11.50;99.90;;;;;;5016042;28;20805;-69
2023/10/06 00:45:44;;;;;;;7.60;5.37;;;11.50;99.90;;;;;;5014822;28;20401;-69
2023/10/06 00:48:14;;;;;;;9.27;5.50;;;11.50;99.90;;;;;;5015396;28;20413;-69
2023/10/06 00:50:41;;;;;;;11.67;5.33;;;11.50;99.90;;;;;;5015373;28;20410;-70
2023/10/06 00:53:09;;;;;;;12.13;6.50;;;11.50;99.90;;;;;;5014787;28;20415;-70
2023/10/06 00:55:36;;;;;;;10.93;5.63;;;11.40;99.90;;;;;;5015326;28;20534;-69
2023/10/06 00:58:03;;;;;;;12.53;6.80;;;11.40;99.90;;;;;;5015373;28;20404;-70
2023/10/06 01:00:31;;;;;;;9.07;4.53;;;11.40;99.90;;;;;;5014925;28;20403;-69
2023/10/06 01:02:57;;;;;;;10.90;5.43;;;11.40;99.90;;;;;;5015054;28;20405;-69
2023/10/06 01:05:25;;;;;;;11.03;5.23;;;11.40;99.90;;;;;;5014918;28;20780;-69
2023/10/06 01:07:51;;;;;;;11.07;5.63;;;11.40;99.90;;;;;;5015255;28;20172;-69
2023/10/06 01:10:17;;;;;;;7.63;5.30;;;11.30;99.90;;;;;;5015018;28;20566;-70
2023/10/06 01:12:50;;;;;;;8.23;5.50;;;11.30;99.90;;;;;;5014912;28;20174;-70
2023/10/06 01:15:20;;;;;;;12.33;6.20;;;11.30;99.90;;;;;;5014618;28;20454;-69
2023/10/06 01:17:49;;;;;;;13.33;5.20;;;11.30;99.90;;;;;;5014695;28;20424;-67
2023/10/06 01:20:40;;;;;;;10.13;5.50;;;11.30;99.90;;;;;;5014858;28;20407;-70
2023/10/06 01:23:16;;;;;;;8.47;6.17;;;11.30;99.90;;;;;;5014398;28;20410;-70
2023/10/06 01:25:42;;;;;;;6.57;4.87;;;11.20;99.90;;;;;;5014820;28;20390;-70
2023/10/06 01:28:12;;;;;;;9.63;5.10;;;11.20;99.90;;;;;;5014446;28;20785;-70
2023/10/06 01:30:38;;;;;;;8.23;5.13;;;11.20;99.90;;;;;;5014180;28;20407;-70
2023/10/06 01:33:05;;;;;;;9.73;6.00;;;11.20;99.90;;;;;;5014245;28;20405;-71
2023/10/06 01:35:33;;;;;;;10.13;5.90;;;11.10;99.90;;;;;;5014576;28;20500;-69
2023/10/06 01:38:00;;;;;;;7.00;4.77;;;11.20;99.90;;;;;;5014193;28;20404;-69
2023/10/06 01:42:52;;;;;;;8.80;4.70;;;11.10;99.90;;;;;;5014525;28;20464;-69
2023/10/06 01:45:21;;;;;;;10.23;6.03;;;11.10;99.90;;;;;;5014134;28;20430;-69
2023/10/06 01:50:35;;;;;;;9.43;5.27;;;11.10;99.90;;;;;;5014143;28;20397;-70
2023/10/06 01:53:07;;;;;;;7.93;5.43;;;11.10;99.90;;;;;;5014246;28;20417;-70
2023/10/06 01:55:38;;;;;;;9.07;5.80;;;11.10;99.90;;;;;;5014053;28;20236;-69
2023/10/06 01:58:05;;;;;;;9.10;5.60;;;11.10;99.90;;;;;;5013654;28;20895;-69
2023/10/06 02:00:33;;;;;;;8.63;5.30;;;11.10;99.90;;;;;;5014152;28;20427;-70
2023/10/06 02:03:00;;;;;;;8.80;5.50;;;11.10;99.90;;;;;;5014048;28;20407;-69
2023/10/06 02:05:26;;;;;;;10.40;5.97;;;11.10;99.90;;;;;;5014055;28;20416;-70
2023/10/06 02:07:52;;;;;;;11.20;5.73;;;11.10;99.90;;;;;;5014498;28;20413;-69
2023/10/06 02:10:18;;;;;;;10.07;5.27;;;10.90;99.90;;;;;;5014621;28;20168;-70
2023/10/06 02:12:47;;;;;;;7.33;5.00;;;10.90;99.90;;;;;;5014197;28;20160;-70
2023/10/06 02:15:12;;;;;;;9.30;4.33;;;10.90;99.90;;;;;;5013976;28;20502;-69
2023/10/06 02:17:41;;;;;;;9.87;6.30;;;10.80;99.90;;;;;;5013771;28;20907;-70
2023/10/06 02:22:57;;;;;;;10.97;5.33;;;10.80;99.90;;;;;;5013834;28;20411;-69
2023/10/06 02:25:25;;;;;;;12.97;5.70;;;10.90;99.90;;;;;;5013736;28;20921;-70
2023/10/06 02:27:51;;;;;;;7.73;5.67;;;10.90;99.90;;;;;;5013503;28;20413;-70
2023/10/06 02:30:19;;;;;;;9.27;6.60;;;10.90;99.90;;;;;;5013484;28;20411;-70
2023/10/06 02:32:46;;;;;;;9.70;5.93;;;10.90;99.90;;;;;;5013310;28;20469;-70
2023/10/06 02:35:12;;;;;;;7.53;5.10;;;10.90;99.90;;;;;;5013269;28;20457;-70
2023/10/06 02:37:39;;;;;;;7.97;5.83;;;10.90;99.90;;;;;;5013402;28;20488;-70
2023/10/06 02:40:12;;;;;;;7.93;5.57;;;10.90;99.90;;;;;;5012157;28;20781;-69
2023/10/06 02:42:47;;;;;;;9.80;6.10;;;10.90;99.90;;;;;;5013715;28;20403;-70
2023/10/06 02:45:17;;;;;;;9.27;5.20;;;10.80;99.90;;;;;;4993892;28;20442;-70
2023/10/06 02:47:43;;;;;;;7.00;5.07;;;10.80;99.90;;;;;;4993941;28;20433;-70
2023/10/06 02:50:17;;;;;;;11.70;5.90;;;10.80;99.90;;;;;;4993586;28;20778;-70
2023/10/06 02:52:45;;;;;;;11.60;6.27;;;10.80;99.90;;;;;;4998924;28;20195;-70
2023/10/06 02:55:11;;;;;;;7.37;5.03;;;10.70;99.90;;;;;;5037294;23;20494;-72
2023/10/06 02:57:38;;;;;;;9.10;5.90;;;10.70;99.90;;;;;;5028775;28;20964;-71
2023/10/06 03:03:11;;;;;;;10.23;5.90;;;10.60;99.90;;;;;;5016351;28;20411;-73
2023/10/06 03:05:39;;;;;;;12.37;6.10;;;10.60;99.90;;;;;;5017310;28;20424;-72
2023/10/06 03:08:08;;;;;;;9.57;6.00;;;10.60;99.90;;;;;;5017595;28;20411;-72
2023/10/06 03:10:42;;;;;;;7.77;5.20;;;10.70;99.90;;;;;;5017470;28;20399;-72
2023/10/06 03:13:14;;;;;;;11.97;6.20;;;10.70;99.90;;;;;;5017267;28;20803;-73
2023/10/06 03:15:46;;;;;;;12.30;6.83;;;10.70;99.90;;;;;;5017773;28;20399;-73
2023/10/06 03:18:13;;;;;;;10.53;6.47;;;10.70;99.90;;;;;;5017064;28;20402;-72
2023/10/06 03:21:22;;;;;;;9.73;5.83;;;10.70;99.90;;;;;;5017748;28;20404;-73
2023/10/06 03:23:36;;;;;;;10.17;5.60;;;10.60;99.90;;;;;;5014603;28;20422;-73
2023/10/06 03:26:11;;;;;;;8.63;5.40;;;10.60;99.90;;;;;;5017887;28;20432;-73
2023/10/06 03:28:37;;;;;;;13.70;6.50;;;10.60;99.90;;;;;;5015949;28;20411;-72
2023/10/06 03:31:21;;;;;;;12.30;6.63;;;10.60;99.90;;;;;;5017730;28;20736;-72
2023/10/06 03:33:54;;;;;;;10.97;6.23;;;10.50;99.90;;;;;;5017616;28;20188;-72
2023/10/06 03:36:55;;;;;;;12.97;7.13;;;10.60;99.90;;;;;;5018095;28;20395;-72
2023/10/06 03:39:13;;;;;;;10.03;6.60;;;10.60;99.90;;;;;;5017452;28;20944;-72
2023/10/06 03:41:41;;;;;;;8.40;5.37;;;10.50;99.90;;;;;;5019290;28;20482;-72
2023/10/06 03:44:06;;;;;;;8.27;5.53;;;10.50;99.90;;;;;;5018826;28;20428;-73
2023/10/06 03:46:38;;;;;;;8.13;5.60;;;10.50;99.90;;;;;;5019194;28;20517;-71
2023/10/06 03:49:07;;;;;;;7.00;5.30;;;10.50;99.90;;;;;;5019369;28;20160;-72
2023/10/06 03:51:38;;;;;;;10.53;6.13;;;10.50;99.90;;;;;;5018788;28;20399;-70
2023/10/06 03:54:04;;;;;;;11.33;6.67;;;10.50;99.90;;;;;;5018078;28;20508;-72
2023/10/06 03:56:30;;;;;;;11.10;6.50;;;10.50;99.90;;;;;;5027459;28;20445;-72
2023/10/06 03:58:56;;;;;;;10.10;6.17;;;10.50;99.90;;;;;;5033285;28;20438;-72
2023/10/06 04:01:27;;;;;;;11.80;6.50;;;10.50;99.90;;;;;;5037636;28;20403;-72
2023/10/06 04:03:53;;;;;;;10.50;7.70;;;10.40;99.90;;;;;;5038920;28;20222;-72
2023/10/06 04:06:23;;;;;;;9.93;6.90;;;10.40;99.90;;;;;;5035356;28;20446;-71
2023/10/06 04:08:49;;;;;;;8.23;5.93;;;10.40;99.90;;;;;;5037651;28;20425;-71
2023/10/06 04:11:14;;;;;;;9.57;6.80;;;10.30;99.90;;;;;;5036211;28;20410;-71
2023/10/06 04:13:41;;;;;;;8.40;6.37;;;10.30;99.90;;;;;;5037148;28;20821;-71
2023/10/06 04:16:07;;;;;;;7.93;5.97;;;10.30;99.90;;;;;;5037833;28;20183;-72
2023/10/06 04:18:32;;;;;;;9.60;6.93;;;10.30;99.90;;;;;;5032676;28;20414;-72
2023/10/06 04:20:58;;;;;;;10.03;6.43;;;10.20;99.90;;;;;;5028341;28;20244;-72
2023/10/06 04:23:24;;;;;;;8.30;5.63;;;10.30;99.90;;;;;;5025626;28;20175;-73
2023/10/06 04:25:57;;;;;;;8.40;5.43;;;10.30;99.90;;;;;;5018013;28;20250;-72
2023/10/06 04:28:24;;;;;;;8.63;5.63;;;10.30;99.90;;;;;;5016380;28;20380;-71
2023/10/06 04:30:50;;;;;;;11.40;6.77;;;10.40;99.90;;;;;;5014420;28;20418;-72
2023/10/06 04:33:18;;;;;;;10.37;6.70;;;10.40;99.90;;;;;;5015845;28;20413;-73
2023/10/06 04:38:29;;;;;;;9.70;5.77;;;10.30;99.90;;;;;;5016261;28;20457;-71
2023/10/06 04:40:58;;;;;;;9.20;6.40;;;10.30;99.90;;;;;;5014371;28;20427;-72
2023/10/06 04:43:26;;;;;;;9.77;5.80;;;10.30;99.90;;;;;;5014753;28;20172;-71
2023/10/06 04:45:51;;;;;;;12.17;6.97;;;10.30;99.90;;;;;;5015991;28;20444;-71
2023/10/06 04:48:20;;;;;;;11.80;7.53;;;10.30;99.90;;;;;;5017756;28;20794;-72
2023/10/06 04:50:45;;;;;;;11.00;7.17;;;10.30;99.90;;;;;;5015354;28;20166;-70
2023/10/06 04:53:11;;;;;;;10.77;7.43;;;10.30;99.90;;;;;;5015344;28;20978;-72
2023/10/06 04:55:40;;;;;;;11.03;7.07;;;10.30;99.90;;;;;;5015314;28;20454;-72
2023/10/06 04:58:08;;;;;;;10.97;8.10;;;10.30;99.90;;;;;;5015597;28;20422;-72
2023/10/06 05:00:34;;;;;;;14.97;7.37;;;10.30;99.90;;;;;;5014875;28;20416;-73
2023/10/06 05:03:03;;;;;;;11.10;6.30;;;10.30;99.90;;;;;;5014834;28;20947;-71
2023/10/06 05:05:33;;;;;;;8.83;6.80;;;10.30;99.90;;;;;;4995260;28;20570;-72
2023/10/06 05:07:59;;;;;;;9.13;5.80;;;10.20;99.90;;;;;;4995474;28;20748;-72
2023/10/06 05:10:25;;;;;;;11.90;7.27;;;10.30;99.90;;;;;;4995634;28;20415;-72
2023/10/06 05:12:52;;;;;;;10.40;6.50;;;10.20;99.90;;;;;;4995266;28;20505;-72
2023/10/06 05:15:24;;;;;;;13.50;7.20;;;10.20;99.90;;;;;;5013575;28;20561;-72
2023/10/06 05:17:56;;;;;;;8.20;6.97;;;10.20;99.90;;;;;;5015112;28;20392;-71
2023/10/06 05:20:23;;;;;;;10.13;8.07;;;10.30;99.90;;;;;;5015015;28;20411;-72
2023/10/06 05:22:50;;;;;;;14.30;7.57;;;10.30;99.90;;;;;;5013268;28;20490;-73
2023/10/06 05:25:19;;;;;;;10.47;6.83;;;10.30;99.90;;;;;;5014053;28;20450;-72
2023/10/06 05:27:46;;;;;;;11.87;8.20;;;10.30;99.90;;;;;;5014658;28;20412;-71
2023/10/06 05:30:13;;;;;;;15.80;8.43;;;10.30;99.90;;;;;;5014513;28;20434;-71
2023/10/06 05:32:42;;;;;;;9.47;6.83;;;10.30;99.90;;;;;;5014677;28;20404;-71
2023/10/06 05:35:13;;;;;;;9.63;7.90;;;10.30;99.90;;;;;;5014265;28;20509;-71
2023/10/06 05:37:41;;;;;;;11.13;7.80;;;10.30;99.90;;;;;;5014670;28;20399;-72
2023/10/06 05:40:12;;;;;;;10.10;7.57;;;10.30;99.90;;;;;;5014386;28;20449;-72
2023/10/06 05:42:40;;;;;;;10.03;7.80;;;10.30;99.90;;;;;;5013214;28;20862;-71
2023/10/06 05:45:15;;;;;;;11.83;7.20;;;10.30;99.90;;;;;;5013969;28;20533;-71
2023/10/06 05:47:51;;;;;;;9.97;7.87;;;10.20;99.90;;;;;;5013113;28;20508;-72
2023/10/06 05:50:21;;;;;;;10.13;8.13;;;10.30;99.90;;;;;;5014013;28;20445;-72
2023/10/06 05:52:51;;;;;;;12.50;8.13;;;10.20;99.90;;;;;;5014175;28;20466;-72
2023/10/06 05:55:19;;;;;;;11.27;8.50;;;10.20;99.90;;;;;;5012603;28;20486;-72
2023/10/06 05:57:52;;;;;;;11.17;5.90;;;10.20;99.90;;;;;;5013954;28;20457;-72
2023/10/06 06:00:24;;;;;;;12.83;9.10;;;10.30;99.90;;;;;;5014077;28;20395;-73
2023/10/06 06:02:53;;;;;;;14.13;9.80;;;10.30;99.90;;;;;;5013145;28;20424;-71
2023/10/06 06:05:20;;;;;;;10.10;7.90;;;10.40;99.90;;;;;;5013663;28;20505;-72
2023/10/06 06:07:46;;;;;;;11.53;8.97;;;10.40;99.90;;;;;;5013698;28;20423;-71
2023/10/06 06:10:13;;;;;;;15.33;9.27;;;10.40;99.90;;;;;;5014026;28;20414;-72
2023/10/06 06:12:40;;;;;;;13.23;8.90;;;10.40;99.90;;;;;;5014173;28;20168;-72
2023/10/06 06:15:08;;;;;;;12.80;8.90;;;10.50;99.90;;;;;;5013668;28;20457;-71
2023/10/06 06:17:34;;;;;;;12.60;7.77;;;10.50;99.90;;;;;;5018363;28;20422;-72
2023/10/06 06:20:01;;;;;;;10.60;7.70;;;10.60;99.90;;;;;;5013342;28;20817;-72
2023/10/06 06:22:29;;;;;;;11.90;8.77;;;10.70;99.90;;;;;;5013623;28;20414;-72
2023/10/06 06:24:55;;;;;;;13.53;8.93;;;10.70;99.90;;;;;;5013380;28;20447;-72
2023/10/06 06:27:22;;;;;;;10.07;6.80;;;10.80;99.90;;;;;;5013802;28;20497;-72
2023/10/06 06:29:49;;;;;;;15.07;10.00;;;10.80;99.90;;;;;;5013718;28;20403;-72
2023/10/06 06:32:15;;;;;;;9.80;7.27;;;10.80;99.90;;;;;;5013575;28;20435;-72
2023/10/06 06:34:41;;;;;;;9.50;8.50;;;10.80;99.90;;;;;;5012586;28;20512;-72
2023/10/06 06:37:09;;;;;;;10.63;7.90;;;10.90;99.90;;;;;;5014212;28;20924;-72
2023/10/06 06:39:37;;;;;;;13.27;9.30;;;10.90;99.90;;;;;;5013478;28;20405;-72
2023/10/06 06:42:05;;;;;;;11.40;8.00;;;10.90;99.90;;;;;;5013555;28;20415;-71
2023/10/06 06:44:31;;;;;;;11.10;8.17;;;11.00;99.90;;;;;;5012117;28;20434;-71
2023/10/06 06:46:56;;;;;;;11.57;8.77;;;11.00;99.90;;;;;;5012317;28;20459;-71
2023/10/06 06:49:23;;;;;;;11.30;7.80;;;11.10;99.90;;;;;;5013804;28;20306;-70
2023/10/06 06:51:52;;;;;;;8.07;7.30;;;11.10;99.90;;;;;;5013715;28;20166;-73
2023/10/06 06:54:19;;;;;;;14.70;9.33;;;11.10;99.90;;;;;;5012860;28;20452;-73
2023/10/06 06:56:47;;;;;;;12.00;8.67;;;11.20;99.90;;;;;;5013695;28;20418;-72
2023/10/06 06:59:13;;;;;;;12.13;8.90;;;11.20;99.90;;;;;;5012016;28;20417;-72
2023/10/06 07:01:38;;;;;;;11.60;8.47;;;11.20;99.90;;;;;;5011871;28;20839;-73
2023/10/06 07:04:06;;;;;;;11.87;8.87;;;11.30;99.90;;;;;;5013022;28;20193;-71
2023/10/06 07:06:31;;;;;;;15.10;9.10;;;11.40;99.90;;;;;;5011932;28;20234;-71
2023/10/06 07:08:57;;;;;;;12.00;8.90;;;11.50;99.90;;;;;;5013004;28;20412;-71
2023/10/06 07:11:23;;;;;;;11.40;8.77;;;11.50;99.90;;;;;;5013209;28;20183;-71
2023/10/06 07:13:48;;;;;;;15.90;11.53;;;11.60;99.90;;;;;;5013045;28;20195;-70
2023/10/06 07:16:14;;;;;;;16.80;10.60;;;11.80;99.90;;;;;;5013071;28;20414;-72
2023/10/06 07:18:40;;;;;;;11.43;9.00;;;11.80;99.90;;;;;;5013366;28;20564;-71
2023/10/06 07:21:10;;;;;;;11.27;9.63;;;11.90;99.90;;;;;;5013182;28;20702;-73
2023/10/06 07:23:37;;;;;;;14.03;9.50;;;12.00;99.90;;;;;;5013462;28;20423;-72
2023/10/06 07:26:09;;;;;;;12.20;9.60;;;12.10;99.90;;;;;;5013366;28;20449;-71
2023/10/06 07:28:37;;;;;;;12.73;8.93;;;12.20;99.90;;;;;;5013645;28;20396;-71
2023/10/06 07:31:12;;;;;;;13.20;8.97;;;12.30;99.90;;;;;;5012688;28;20909;-72
2023/10/06 07:33:38;;;;;;;15.90;9.90;;;12.30;99.90;;;;;;5013175;28;20857;-71
2023/10/06 07:36:17;;;;;;;13.70;9.63;;;12.40;99.90;;;;;;5013040;28;20778;-70
2023/10/06 07:38:43;;;;;;;12.77;9.30;;;12.50;99.90;;;;;;5011856;28;20403;-71
2023/10/06 07:41:16;;;;;;;16.43;10.33;;;12.60;99.90;;;;;;5012930;28;20411;-72
2023/10/06 07:43:48;;;;;;;20.13;12.17;;;12.70;99.90;;;;;;5013304;28;20427;-72
2023/10/06 07:46:15;;;;;;;12.40;10.57;;;12.80;99.90;;;;;;5014916;28;20520;-72
2023/10/06 07:48:45;;;;;;;13.70;9.67;;;12.90;99.90;;;;;;5017472;28;20404;-72
2023/10/06 07:51:13;;;;;;;11.90;9.63;;;13.00;99.90;;;;;;5010725;28;20773;-73
2023/10/06 07:53:39;;;;;;;12.50;9.23;;;13.20;99.90;;;;;;5016304;28;20466;-73
2023/10/06 07:56:09;;;;;;;15.37;9.73;;;13.30;99.90;;;;;;5016349;28;20391;-72
2023/10/06 07:58:38;;;;;;;11.70;9.60;;;13.40;99.90;;;;;;5016012;28;20458;-72
2023/10/06 08:01:08;;;;;;;14.23;9.20;;;13.50;99.90;;;;;;5015723;28;20403;-70
2023/10/06 08:03:38;;;;;;;15.10;10.20;;;13.60;99.90;;;;;;5014296;28;20508;-74
2023/10/06 08:06:05;;;;;;;17.10;9.87;;;13.70;99.90;;;;;;5016577;28;20432;-73
2023/10/06 08:08:34;;;;;;;13.90;10.50;;;13.80;99.90;;;;;;5016257;28;20464;-72
2023/10/06 08:11:04;;;;;;;12.17;9.07;;;13.90;99.90;;;;;;5016904;28;20398;-72
2023/10/06 08:13:36;;;;;;;13.57;9.30;;;14.00;99.90;;;;;;5016922;28;20477;-72
2023/10/06 08:16:03;;;;;;;15.33;9.97;;;13.60;99.90;;;;;;5016353;28;20389;-71
2023/10/06 08:18:29;;;;;;;10.33;8.63;;;13.30;99.90;;;;;;5015956;28;20398;-71
2023/10/06 08:21:01;;;;;;;10.13;8.20;;;13.20;99.90;;;;;;5017312;28;20507;-73
2023/10/06 08:23:35;;;;;;;11.57;8.57;;;13.20;99.90;;;;;;5016970;28;20434;-73
2023/10/06 08:26:07;;;;;;;9.87;8.03;;;13.20;99.90;;;;;;5015980;28;20429;-72
2023/10/06 08:28:33;;;;;;;14.63;8.40;;;13.20;99.90;;;;;;5015795;28;20468;-72
2023/10/06 08:31:00;;;;;;;9.73;8.50;;;13.40;99.90;;;;;;5015921;28;20561;-73
2023/10/06 08:33:27;;;;;;;9.93;8.37;;;13.40;99.90;;;;;;5015367;28;20649;-71
2023/10/06 08:36:00;;;;;;;10.93;7.77;;;13.50;99.90;;;;;;5015456;28;20399;-71
2023/10/06 08:38:26;;;;;;;10.67;8.07;;;13.50;99.90;;;;;;5015702;28;20453;-71
2023/10/06 08:40:58;;;;;;;8.47;7.67;;;13.60;99.90;;;;;;5014478;28;20964;-70
2023/10/06 08:43:28;;;;;;;12.30;7.90;;;13.80;99.90;;;;;;5015524;28;20388;-71
2023/10/06 08:45:59;;;;;;;10.87;7.30;;;14.00;99.90;;;;;;4995893;28;20809;-74
2023/10/06 08:48:35;;;;;;;9.93;7.00;;;14.00;99.90;;;;;;4994600;28;20422;-73
2023/10/06 08:51:07;;;;;;;9.10;7.30;;;14.10;99.90;;;;;;4996087;28;20408;-72
2023/10/06 08:53:40;;;;;;;12.80;8.50;;;14.20;99.90;;;;;;4995730;28;20423;-72
2023/10/06 08:56:05;;;;;;;8.77;7.00;;;14.30;99.90;;;;;;4998422;28;20421;-74
2023/10/06 08:58:31;;;;;;;11.13;7.90;;;14.40;99.90;;;;;;5014159;28;20409;-73
2023/10/06 09:00:59;;;;;;;12.10;7.80;;;14.20;99.90;;;;;;5015110;28;20171;-72
2023/10/06 09:03:25;;;;;;;9.60;7.20;;;14.30;99.90;;;;;;5015350;28;20229;-73
2023/10/06 09:05:50;;;;;;;8.03;7.10;;;14.50;99.90;;;;;;5013823;28;20444;-72
2023/10/06 09:08:17;;;;;;;8.63;7.50;;;14.90;99.90;;;;;;5015198;28;20176;-73
2023/10/06 09:10:49;;;;;;;11.43;7.77;;;15.00;99.90;;;;;;5015372;28;20656;-73
2023/10/06 09:13:17;;;;;;;9.23;7.10;;;15.20;99.90;;;;;;5015111;28;20393;-74
2023/10/06 09:15:54;;;;;;;9.90;7.30;;;15.40;99.90;;;;;;5013533;28;20405;-72
2023/10/06 09:18:27;;;;;;;10.83;7.60;;;15.30;99.90;;;;;;5015091;28;20489;-72
2023/10/06 09:20:54;;;;;;;9.30;7.37;;;15.30;99.90;;;;;;5014794;28;20390;-73
2023/10/06 09:23:40;;;;;;;10.03;7.17;;;15.40;99.90;;;;;;5015352;28;20504;-73
2023/10/06 09:26:11;;;;;;;9.97;7.90;;;15.40;99.90;;;;;;4996545;28;20431;-73
2023/10/06 09:28:55;;;;;;;10.10;6.80;;;15.40;99.90;;;;;;4995446;28;20385;-73
2023/10/06 09:31:44;;;;;;;10.40;7.30;;;15.50;99.90;;;;;;4995314;28;20382;-73
2023/10/06 09:34:11;;;;;;;9.50;7.63;;;15.70;99.90;;;;;;5008603;28;20775;-73
2023/10/06 09:36:38;;;;;;;12.10;7.30;;;15.90;99.90;;;;;;5014857;28;20440;-73
2023/10/06 09:39:13;;;;;;;9.70;7.20;;;16.10;99.90;;;;;;5014625;28;20860;-73
2023/10/06 09:41:39;;;;;;;12.47;8.13;;;16.30;99.90;;;;;;5014599;28;20394;-73
2023/10/06 09:44:09;;;;;;;10.47;7.57;;;16.70;99.90;;;;;;5014253;28;20457;-74
2023/10/06 09:46:35;;;;;;;11.00;7.10;;;16.90;99.90;;;;;;5014711;28;20435;-73
2023/10/06 09:49:07;;;;;;;12.20;7.40;;;17.20;99.90;;;;;;5014930;28;20409;-73
2023/10/06 09:51:36;;;;;;;9.60;7.10;;;17.40;99.90;;;;;;5014435;28;20387;-72
2023/10/06 09:54:04;;;;;;;14.93;7.40;;;17.40;99.90;;;;;;5013906;28;20449;-72
2023/10/06 09:56:31;;;;;;;10.90;7.73;;;17.50;99.90;;;;;;5014760;28;20801;-72
2023/10/06 09:58:59;;;;;;;10.20;7.67;;;17.40;99.90;;;;;;5014180;28;20544;-72
2023/10/06 10:01:25;;;;;;;9.80;6.53;;;17.30;99.90;;;;;;5014087;28;20465;-73
2023/10/06 10:03:52;;;;;;;12.33;7.33;;;17.30;99.90;;;;;;5014307;28;20426;-72
2023/10/06 10:06:21;;;;;;;11.30;7.07;;;17.50;99.90;;;;;;5014453;28;20534;-72
2023/10/06 10:08:47;;;;;;;9.93;6.80;;;17.70;99.90;;;;;;5013759;28;20403;-72
2023/10/06 10:11:29;;;;;;;9.50;6.30;;;17.80;99.90;;;;;;5014220;28;20399;-72
2023/10/06 10:14:20;;;;;;;13.30;7.30;;;18.10;99.90;;;;;;5013688;28;20219;-72
2023/10/06 10:17:08;;;;;;;10.50;7.73;;;18.20;99.90;;;;;;5013970;28;20909;-72
2023/10/06 10:19:36;;;;;;;15.90;9.80;;;18.20;99.90;;;;;;5014060;28;20384;-73
2023/10/06 10:22:03;;;;;;;8.53;7.50;;;17.80;99.90;;;;;;5012572;28;20418;-73
2023/10/06 10:24:31;;;;;;;10.90;7.00;;;17.90;99.90;;;;;;5014008;28;20415;-74
2023/10/06 10:26:56;;;;;;;10.67;8.20;;;17.90;99.90;;;;;;5013252;28;20442;-74
2023/10/06 10:29:24;;;;;;;12.40;7.57;;;18.00;99.90;;;;;;5012613;28;20415;-74
2023/10/06 10:31:57;;;;;;;12.53;7.07;;;18.00;99.90;;;;;;5013708;28;20556;-73
2023/10/06 10:34:23;;;;;;;11.77;7.00;;;17.90;99.90;;;;;;5013794;28;20438;-74
2023/10/06 10:37:12;;;;;;;10.10;6.93;;;17.90;99.90;;;;;;5013686;28;20478;-71
2023/10/06 10:39:53;;;;;;;11.10;6.80;;;18.20;99.90;;;;;;5011927;28;20176;-73
2023/10/06 10:42:22;;;;;;;9.70;6.57;;;18.40;99.90;;;;;;5013608;28;20433;-74
2023/10/06 10:44:49;;;;;;;9.73;5.97;;;18.50;99.90;;;;;;5013504;28;20427;-74
2023/10/06 10:47:17;;;;;;;9.20;7.20;;;18.50;99.90;;;;;;5013424;28;20466;-72
2023/10/06 10:49:46;;;;;;;11.03;7.80;;;18.70;99.90;;;;;;5013055;28;20403;-72
2023/10/06 10:52:11;;;;;;;16.47;7.67;;;18.70;99.90;;;;;;5013717;28;20415;-73
2023/10/06 10:54:40;;;;;;;8.23;6.03;;;18.70;99.90;;;;;;5014157;28;20449;-73
2023/10/06 10:57:09;;;;;;;10.70;7.30;;;19.00;99.90;;;;;;5013944;28;20256;-74
2023/10/06 11:00:00;;;;;;;9.43;7.30;;;19.20;99.90;;;;;;5013870;28;20823;-74
2023/10/06 11:03:01;;;;;;;12.63;7.17;;;19.20;99.90;;;;;;5011985;28;20415;-73
2023/10/06 11:05:27;;;;;;;11.97;7.40;;;19.70;99.90;;;;;;5012993;28;20989;-72
2023/10/06 11:08:00;;;;;;;10.97;7.23;;;21.00;99.90;;;;;;5012925;28;20414;-73
2023/10/06 11:10:26;;;;;;;9.87;5.87;;;22.60;99.90;;;;;;5014115;28;20465;-73
2023/10/06 11:13:24;;;;;;;9.33;6.10;;;24.00;99.90;;;;;;5013150;28;20411;-73
2023/10/06 11:15:49;;;;;;;11.33;6.63;;;25.60;96.10;;;;;;5012955;28;20902;-74
2023/10/06 11:18:17;;;;;;;9.23;6.23;;;25.10;95.30;;;;;;5011961;28;20410;-73
2023/10/06 11:20:45;;;;;;;10.17;6.70;;;25.40;95.10;;;;;;5014436;28;20526;-74
2023/10/06 11:23:11;;;;;;;11.77;6.83;;;26.40;93.60;;;;;;5017248;28;20843;-74
2023/10/06 11:25:48;;;;;;;11.20;6.03;;;26.90;91.80;;;;;;5016785;28;20811;-74
2023/10/06 11:28:14;;;;;;;7.10;5.93;;;26.20;91.60;;;;;;5017821;28;20437;-73
2023/10/06 11:30:41;;;;;;;7.53;6.00;;;25.90;91.60;;;;;;5016927;28;20746;-74
2023/10/06 11:33:08;;;;;;;7.90;5.63;;;25.40;92.30;;;;;;5016842;28;20839;-74
2023/10/06 11:35:36;;;;;;;7.80;6.47;;;25.80;92.00;;;;;;5016461;28;20434;-74
2023/10/06 11:38:04;;;;;;;7.53;6.10;;;27.30;91.00;;;;;;5015398;28;20427;-74
2023/10/06 11:40:31;;;;;;;8.87;6.10;;;27.00;89.50;;;;;;5015236;28;20497;-72
2023/10/06 11:43:09;;;;;;;10.10;5.83;;;27.70;87.70;;;;;;5016512;28;20406;-74
2023/10/06 11:45:36;;;;;;;8.23;6.40;;;27.90;84.20;;;;;;5016415;28;20858;-72
2023/10/06 11:48:02;;;;;;;8.87;5.70;;;26.40;87.70;;;;;;5016625;28;20442;-73
2023/10/06 11:50:32;;;;;;;7.13;5.63;;;27.20;87.50;;;;;;5017047;28;20438;-73
2023/10/06 11:52:59;;;;;;;7.20;5.83;;;27.90;84.30;;;;;;5015555;28;20179;-73
2023/10/06 11:55:33;;;;;;;9.57;5.87;;;29.10;80.30;;;;;;5016591;28;20829;-73
2023/10/06 11:58:00;;;;;;;8.23;6.50;;;29.30;79.00;;;;;;5015412;28;20403;-73
2023/10/06 12:00:34;;;;;;;9.40;6.20;;;29.80;76.80;;;;;;5017068;28;20776;-74
2023/10/06 12:03:00;;;;;;;9.60;6.10;;;28.80;76.40;;;;;;5017231;28;20405;-74
2023/10/06 12:05:26;;;;;;;8.00;5.77;;;27.20;80.10;;;;;;5016211;28;20914;-73
2023/10/06 12:07:52;;;;;;;9.00;5.63;;;27.40;81.90;;;;;;5017112;28;20407;-73
2023/10/06 12:10:20;;;;;;;8.13;6.00;;;28.80;78.20;;;;;;5016623;28;20407;-73
2023/10/06 12:12:47;;;;;;;9.60;6.30;;;29.10;76.50;;;;;;5016635;28;20172;-72
2023/10/06 12:15:14;;;;;;;7.10;5.10;;;27.80;77.40;;;;;;5016254;28;20446;-73
2023/10/06 12:17:40;;;;;;;9.07;6.50;;;28.20;77.30;;;;;;5016959;28;20434;-74
2023/10/06 12:20:13;;;;;;;10.27;5.63;;;28.30;76.10;;;;;;5017345;28;20422;-74
2023/10/06 12:22:40;;;;;;;7.90;5.70;;;29.30;75.70;;;;;;5015956;28;20387;-72
2023/10/06 12:25:07;;;;;;;7.83;6.00;;;30.80;71.00;;;;;;5015641;28;20423;-72
2023/10/06 12:27:32;;;;;;;10.73;7.30;;;30.00;69.40;;;;;;5016314;28;20443;-73
2023/10/06 12:30:02;;;;;;;6.80;5.20;;;28.50;73.20;;;;;;5015924;28;20913;-72
2023/10/06 12:32:30;;;;;;;8.00;5.77;;;28.80;72.80;;;;;;5016083;28;20210;-74
2023/10/06 12:34:59;;;;;;;8.90;5.50;;;27.80;73.60;;;;;;5016233;28;20435;-72
2023/10/06 12:37:25;;;;;;;8.80;6.63;;;29.50;71.20;;;;;;5016362;28;20407;-74
2023/10/06 12:39:51;;;;;;;9.93;6.17;;;29.30;70.40;;;;;;5015740;28;20414;-72
2023/10/06 12:42:17;;;;;;;8.37;6.10;;;28.40;71.60;;;;;;5014356;28;20175;-70
2023/10/06 12:44:43;;;;;;;8.87;5.83;;;29.30;69.30;;;;;;5015277;28;20423;-72
2023/10/06 12:47:12;;;;;;;6.70;5.17;;;31.20;67.50;;;;;;5015313;28;20549;-70
2023/10/06 12:49:43;;;;;;;8.60;5.93;;;32.80;61.70;;;;;;5015481;28;20172;-71
2023/10/06 12:52:09;;;;;;;9.37;5.90;;;33.10;61.00;;;;;;5016323;28;20923;-71
2023/10/06 12:54:36;;;;;;;8.30;6.17;;;33.40;58.80;;;;;;5015126;28;20438;-70
2023/10/06 12:57:02;;;;;;;9.00;6.03;;;31.80;60.40;;;;;;5015752;28;20951;-70
2023/10/06 12:59:28;;;;;;;11.70;5.60;;;32.00;60.70;;;;;;5015207;28;20407;-72
2023/10/06 13:01:56;;;;;;;8.93;6.27;;;32.80;58.10;;;;;;5015305;28;20943;-70
2023/10/06 13:04:25;;;;;;;6.73;5.50;;;32.90;57.70;;;;;;5015278;28;20184;-71
2023/10/06 13:06:51;;;;;;;6.77;4.93;;;32.80;56.80;;;;;;5015059;28;20514;-72